sensor_id;sensor_type;location;lat;lon;timestamp;pressure;altitude;pressure_sealevel;temperature;humidity
30338;BME280;17143;51.888;5.408;2023-04-26T00:08:11;101785.47;;;5.28;93.00
30338;BME280;17143;51.888;5.408;2023-04-26T00:23:13;101792.31;;;5.09;93.62
30338;BME280;17143;51.888;5.408;2023-04-26T00:38:15;101782.16;;;4.92;94.80
30338;BME280;17143;51.888;5.408;2023-04-26T00:53:17;101780.72;;;4.77;95.82
30338;BME280;17143;51.888;5.408;2023-04-26T01:08:19;101784.22;;;4.59;95.56
30338;BME280;17143;51.888;5.408;2023-04-26T01:23:22;101785.84;;;4.40;96.64
30338;BME280;17143;51.888;5.408;2023-04-26T01:38:24;101792.16;;;4.24;97.83
30338;BME280;17143;51.888;5.408;2023-04-26T01:53:29;101784.34;;;4.14;98.62
30338;BME280;17143;51.888;5.408;2023-04-26T02:08:32;101780.31;;;3.99;99.20
30338;BME280;17143;51.888;5.408;2023-04-26T02:23:34;101784.28;;;3.87;99.55
30338;BME280;17143;51.888;5.408;2023-04-26T02:38:37;101781.75;;;3.79;100.00
30338;BME280;17143;51.888;5.408;2023-04-26T02:53:40;101780.72;;;3.68;100.00
30338;BME280;17143;51.888;5.408;2023-04-26T03:08:42;101763.19;;;3.55;100.00
30338;BME280;17143;51.888;5.408;2023-04-26T03:23:45;101766.56;;;3.46;100.00
30338;BME280;17143;51.888;5.408;2023-04-26T03:38:48;101758.53;;;3.34;100.00
30338;BME280;17143;51.888;5.408;2023-04-26T03:53:52;101749.63;;;3.31;100.00
30338;BME280;17143;51.888;5.408;2023-04-26T04:08:54;101760.38;;;3.27;100.00
30338;BME280;17143;51.888;5.408;2023-04-26T04:23:58;101753.56;;;3.19;100.00
30338;BME280;17143;51.888;5.408;2023-04-26T04:39:00;101755.72;;;3.23;100.00
30338;BME280;17143;51.888;5.408;2023-04-26T04:54:10;101766.69;;;3.47;100.00
30338;BME280;17143;51.888;5.408;2023-04-26T05:09:13;101780.06;;;3.88;100.00
30338;BME280;17143;51.888;5.408;2023-04-26T05:24:16;101784.72;;;4.55;100.00
30338;BME280;17143;51.888;5.408;2023-04-26T05:39:18;101787.41;;;7.40;100.00
30338;BME280;17143;51.888;5.408;2023-04-26T05:54:21;101783.09;;;11.21;95.59
30338;BME280;17143;51.888;5.408;2023-04-26T06:09:23;101787.72;;;11.91;87.00
30338;BME280;17143;51.888;5.408;2023-04-26T06:24:25;101794.44;;;11.35;84.30
30338;BME280;17143;51.888;5.408;2023-04-26T06:39:27;101799.50;;;12.40;76.67
30338;BME280;17143;51.888;5.408;2023-04-26T06:54:30;101818.66;;;11.72;78.61
30338;BME280;17143;51.888;5.408;2023-04-26T07:09:32;101812.53;;;11.07;79.23
30338;BME280;17143;51.888;5.408;2023-04-26T07:24:34;101809.91;;;10.94;77.17
30338;BME280;17143;51.888;5.408;2023-04-26T07:39:36;101809.66;;;10.78;78.54
30338;BME280;17143;51.888;5.408;2023-04-26T07:54:38;101824.38;;;10.39;77.23
30338;BME280;17143;51.888;5.408;2023-04-26T08:09:40;101833.84;;;11.26;74.12
30338;BME280;17143;51.888;5.408;2023-04-26T08:24:46;101833.22;;;13.20;69.08
30338;BME280;17143;51.888;5.408;2023-04-26T08:39:48;101826.63;;;12.42;66.01
30338;BME280;17143;51.888;5.408;2023-04-26T08:54:50;101833.28;;;12.09;66.67
30338;BME280;17143;51.888;5.408;2023-04-26T09:09:56;101814.56;;;12.16;65.47
30338;BME280;17143;51.888;5.408;2023-04-26T09:24:59;101816.75;;;11.82;63.79
30338;BME280;17143;51.888;5.408;2023-04-26T09:40:08;101818.66;;;14.46;59.38
30338;BME280;17143;51.888;5.408;2023-04-26T09:55:25;101819.97;;;12.74;60.50
30338;BME280;17143;51.888;5.408;2023-04-26T10:10:27;101821.44;;;11.88;62.02
30338;BME280;17143;51.888;5.408;2023-04-26T10:25:36;101827.28;;;11.71;62.54
30338;BME280;17143;51.888;5.408;2023-04-26T10:40:39;101816.44;;;11.65;62.42
30338;BME280;17143;51.888;5.408;2023-04-26T10:55:41;101819.41;;;11.57;62.68
30338;BME280;17143;51.888;5.408;2023-04-26T11:10:45;101806.06;;;12.33;62.92
30338;BME280;17143;51.888;5.408;2023-04-26T11:25:50;101794.84;;;12.49;62.27
30338;BME280;17143;51.888;5.408;2023-04-26T11:40:56;101791.31;;;12.91;58.47
30338;BME280;17143;51.888;5.408;2023-04-26T11:55:58;101798.47;;;13.22;58.16
30338;BME280;17143;51.888;5.408;2023-04-26T12:11:01;101800.41;;;13.56;57.75
30338;BME280;17143;51.888;5.408;2023-04-26T12:26:03;101804.00;;;13.72;56.64
30338;BME280;17143;51.888;5.408;2023-04-26T12:41:05;101796.72;;;13.97;55.78
30338;BME280;17143;51.888;5.408;2023-04-26T12:56:07;101794.25;;;15.13;54.49
30338;BME280;17143;51.888;5.408;2023-04-26T13:11:09;101793.00;;;14.41;52.61
30338;BME280;17143;51.888;5.408;2023-04-26T13:26:11;101792.78;;;14.36;52.04
30338;BME280;17143;51.888;5.408;2023-04-26T13:41:14;101788.31;;;14.03;51.20
30338;BME280;17143;51.888;5.408;2023-04-26T13:56:16;101792.16;;;14.26;53.20
30338;BME280;17143;51.888;5.408;2023-04-26T14:11:18;101784.63;;;14.16;53.71
30338;BME280;17143;51.888;5.408;2023-04-26T14:26:20;101780.84;;;14.11;52.62
30338;BME280;17143;51.888;5.408;2023-04-26T14:41:22;101781.50;;;14.23;52.02
30338;BME280;17143;51.888;5.408;2023-04-26T14:56:24;101780.97;;;13.81;52.49
30338;BME280;17143;51.888;5.408;2023-04-26T15:11:26;101769.19;;;13.89;53.76
30338;BME280;17143;51.888;5.408;2023-04-26T15:26:28;101768.88;;;13.38;53.94
30338;BME280;17143;51.888;5.408;2023-04-26T15:41:30;101774.56;;;13.02;54.63
30338;BME280;17143;51.888;5.408;2023-04-26T15:56:32;101774.72;;;12.90;54.41
30338;BME280;17143;51.888;5.408;2023-04-26T16:11:34;101777.56;;;13.08;55.44
30338;BME280;17143;51.888;5.408;2023-04-26T16:26:36;101769.69;;;12.78;54.87
30338;BME280;17143;51.888;5.408;2023-04-26T16:41:38;101766.03;;;12.76;53.23
30338;BME280;17143;51.888;5.408;2023-04-26T16:56:40;101771.53;;;12.24;54.99
30338;BME280;17143;51.888;5.408;2023-04-26T17:11:42;101774.78;;;12.20;55.41
30338;BME280;17143;51.888;5.408;2023-04-26T17:26:44;101780.19;;;12.23;55.67
30338;BME280;17143;51.888;5.408;2023-04-26T17:41:46;101791.91;;;11.89;54.56
30338;BME280;17143;51.888;5.408;2023-04-26T17:56:48;101797.56;;;11.69;56.33
30338;BME280;17143;51.888;5.408;2023-04-26T18:11:50;101807.97;;;11.42;58.86
30338;BME280;17143;51.888;5.408;2023-04-26T18:26:52;101818.25;;;11.01;62.22
30338;BME280;17143;51.888;5.408;2023-04-26T18:41:55;101815.50;;;10.74;63.53
30338;BME280;17143;51.888;5.408;2023-04-26T18:56:57;101819.66;;;10.59;64.47
30338;BME280;17143;51.888;5.408;2023-04-26T19:11:59;101833.97;;;10.40;65.67
30338;BME280;17143;51.888;5.408;2023-04-26T19:27:01;101854.19;;;10.20;67.08
30338;BME280;17143;51.888;5.408;2023-04-26T19:42:03;101863.94;;;9.88;68.16
30338;BME280;17143;51.888;5.408;2023-04-26T19:57:05;101863.28;;;9.67;69.84
30338;BME280;17143;51.888;5.408;2023-04-26T20:12:07;101873.91;;;9.47;71.54
30338;BME280;17143;51.888;5.408;2023-04-26T20:27:09;101882.72;;;9.26;73.51
30338;BME280;17143;51.888;5.408;2023-04-26T20:42:11;101880.59;;;8.98;74.85
30338;BME280;17143;51.888;5.408;2023-04-26T20:57:13;101874.44;;;8.75;74.69
30338;BME280;17143;51.888;5.408;2023-04-26T21:12:15;101881.09;;;8.49;77.25
30338;BME280;17143;51.888;5.408;2023-04-26T21:27:17;101893.16;;;8.27;78.38
30338;BME280;17143;51.888;5.408;2023-04-26T21:42:19;101896.50;;;8.05;79.25
30338;BME280;17143;51.888;5.408;2023-04-26T21:57:21;101892.94;;;7.82;80.58
30338;BME280;17143;51.888;5.408;2023-04-26T22:12:23;101890.88;;;7.68;80.82
30338;BME280;17143;51.888;5.408;2023-04-26T22:27:25;101899.50;;;7.47;81.69
30338;BME280;17143;51.888;5.408;2023-04-26T22:42:27;101901.34;;;7.28;81.68
30338;BME280;17143;51.888;5.408;2023-04-26T22:57:29;101919.75;;;7.01;83.81
30338;BME280;17143;51.888;5.408;2023-04-26T23:12:31;101917.13;;;6.81;84.02
30338;BME280;17143;51.888;5.408;2023-04-26T23:27:33;101926.41;;;6.58;85.98
30338;BME280;17143;51.888;5.408;2023-04-26T23:42:35;101933.06;;;6.36;86.56
30338;BME280;17143;51.888;5.408;2023-04-26T23:57:37;101936.91;;;6.21;86.91
